Time;durP1;ratioP1;P1;durP2;ratioP2;P2;SDS_P1;SDS_P2;PMS_P1;PMS_P2;Temp;Humidity;BMP_temperature;BMP_pressure;BME280_temperature;BME280_humidity;BME280_pressure;Samples;Min_cycle;Max_cycle;Signal;HPM_P1;HPM_P2
2022/11/28 00:02:15;;;;;;;8.50;7.33;;;8.40;88.10;;;;;;953703;147;27290;-78
2022/11/28 00:04:41;;;;;;;8.03;7.23;;;8.40;88.20;;;;;;953922;147;27414;-79
2022/11/28 00:07:08;;;;;;;8.07;7.27;;;8.30;88.20;;;;;;953818;147;27681;-78
2022/11/28 00:09:34;;;;;;;7.57;6.80;;;8.30;88.20;;;;;;951279;147;27355;-78
2022/11/28 00:12:01;;;;;;;8.93;7.50;;;8.30;88.30;;;;;;927907;149;27331;-79
2022/11/28 00:14:28;;;;;;;8.27;7.47;;;8.30;88.30;;;;;;931785;151;27291;-79
2022/11/28 00:16:54;;;;;;;8.57;7.67;;;8.30;88.50;;;;;;932334;151;27338;-78
2022/11/28 00:19:21;;;;;;;8.43;7.63;;;8.30;88.60;;;;;;932870;151;27291;-79
2022/11/28 00:21:47;;;;;;;8.90;8.00;;;8.20;88.50;;;;;;932594;152;27746;-79
2022/11/28 00:24:14;;;;;;;9.03;8.13;;;8.20;88.60;;;;;;933070;151;27411;-78
2022/11/28 00:26:41;;;;;;;8.33;7.53;;;8.20;88.60;;;;;;932273;150;27436;-79
2022/11/28 00:29:07;;;;;;;8.90;8.10;;;8.20;88.60;;;;;;933591;151;27411;-79
2022/11/28 00:31:34;;;;;;;8.37;7.57;;;8.20;88.60;;;;;;922544;152;27490;-78
2022/11/28 00:34:03;;;;;;;11.53;7.83;;;8.20;88.80;;;;;;937453;149;27367;-79
2022/11/28 00:36:30;;;;;;;9.10;8.20;;;8.10;88.80;;;;;;915834;153;27500;-78
2022/11/28 00:38:56;;;;;;;9.10;8.20;;;8.10;88.90;;;;;;939784;150;27378;-79
2022/11/28 00:41:23;;;;;;;8.93;8.03;;;8.10;89.30;;;;;;939381;149;27360;-79
2022/11/28 00:43:49;;;;;;;8.53;7.73;;;8.10;89.20;;;;;;938151;149;27375;-78
2022/11/28 00:46:16;;;;;;;9.30;8.30;;;8.10;89.20;;;;;;938851;150;27331;-79
2022/11/28 00:48:42;;;;;;;10.27;8.77;;;8.10;89.30;;;;;;937789;149;27273;-78
2022/11/28 00:51:09;;;;;;;11.20;8.30;;;8.10;89.20;;;;;;939671;149;27807;-79
2022/11/28 00:53:36;;;;;;;8.77;7.97;;;8.10;89.20;;;;;;909197;152;27326;-79
2022/11/28 00:56:05;;;;;;;10.40;8.70;;;8.10;89.20;;;;;;916519;153;27394;-78
2022/11/28 00:58:32;;;;;;;9.17;8.27;;;8.10;89.20;;;;;;933501;150;27360;-79
2022/11/28 01:00:58;;;;;;;8.80;8.00;;;8.00;89.10;;;;;;935359;151;27274;-79
2022/11/28 01:03:25;;;;;;;9.53;8.63;;;8.00;89.10;;;;;;934600;149;27411;-78
2022/11/28 01:05:51;;;;;;;9.07;8.17;;;8.00;89.10;;;;;;934133;151;27363;-79
2022/11/28 01:08:18;;;;;;;10.03;9.13;;;8.00;89.10;;;;;;935881;151;27800;-79
2022/11/28 01:10:45;;;;;;;9.10;8.20;;;8.00;89.20;;;;;;928759;149;28015;-78
2022/11/28 01:13:11;;;;;;;10.10;9.10;;;8.00;89.20;;;;;;933341;151;27371;-79
2022/11/28 01:15:38;;;;;;;9.57;8.20;;;7.90;89.30;;;;;;929303;149;27372;-77
2022/11/28 01:18:04;;;;;;;8.53;7.67;;;7.90;89.40;;;;;;932116;151;27263;-79
2022/11/28 01:20:31;;;;;;;8.83;7.93;;;7.90;89.60;;;;;;932579;149;27298;-79
2022/11/28 01:22:58;;;;;;;9.47;8.57;;;7.90;89.60;;;;;;915351;153;27465;-78
2022/11/28 01:25:24;;;;;;;9.67;8.67;;;7.90;89.70;;;;;;933231;151;27317;-77
2022/11/28 01:27:51;;;;;;;9.33;8.43;;;7.90;89.70;;;;;;927696;151;27337;-78
2022/11/28 01:30:17;;;;;;;10.10;8.47;;;7.90;89.90;;;;;;933839;152;27400;-79
2022/11/28 01:32:44;;;;;;;8.97;7.93;;;7.90;90.00;;;;;;933595;150;27407;-79
2022/11/28 01:35:10;;;;;;;9.63;8.63;;;7.90;90.00;;;;;;931912;151;27946;-79
2022/11/28 01:37:37;;;;;;;9.53;8.53;;;7.90;90.00;;;;;;932470;151;27445;-78
2022/11/28 01:40:04;;;;;;;9.93;8.57;;;7.80;90.00;;;;;;933621;151;28016;-79
2022/11/28 01:42:30;;;;;;;9.30;8.40;;;7.80;90.00;;;;;;930725;149;27152;-78
2022/11/28 01:44:57;;;;;;;8.77;7.87;;;7.80;90.00;;;;;;932121;150;27337;-78
2022/11/28 01:47:23;;;;;;;9.63;8.60;;;7.80;90.00;;;;;;923183;152;27381;-78
2022/11/28 01:49:50;;;;;;;8.93;8.03;;;7.80;90.00;;;;;;931561;152;27356;-79
2022/11/28 01:52:17;;;;;;;8.20;7.50;;;7.80;90.10;;;;;;934245;151;27821;-79
2022/11/28 01:54:43;;;;;;;9.03;7.73;;;7.80;90.20;;;;;;933236;149;27224;-78
2022/11/28 01:57:16;;;;;;;8.40;7.47;;;7.80;90.20;;;;;;928522;149;27411;-78
2022/11/28 01:59:42;;;;;;;8.97;7.33;;;7.80;90.20;;;;;;931472;151;27371;-78
2022/11/28 02:02:09;;;;;;;8.73;7.20;;;7.80;90.20;;;;;;927291;149;28086;-79
2022/11/28 02:04:35;;;;;;;7.93;7.13;;;7.80;89.90;;;;;;927796;149;27410;-78
2022/11/28 02:07:02;;;;;;;8.63;7.83;;;7.80;90.30;;;;;;932755;151;27279;-78
2022/11/28 02:09:29;;;;;;;7.97;7.17;;;7.70;90.30;;;;;;929532;149;27330;-78
2022/11/28 02:12:16;;;;;;;7.53;6.70;;;7.80;90.40;;;;;;931609;151;27400;-78
2022/11/28 02:15:01;;;;;;;9.03;7.30;;;7.70;90.40;;;;;;929421;151;27396;-78
2022/11/28 02:17:46;;;;;;;7.80;7.07;;;7.70;90.40;;;;;;907279;152;27353;-78
2022/11/28 02:20:24;;;;;;;7.57;6.80;;;7.70;90.40;;;;;;931528;151;27472;-78
2022/11/28 02:23:05;;;;;;;8.00;7.30;;;7.70;90.40;;;;;;930868;149;27308;-78
2022/11/28 02:25:57;;;;;;;8.10;7.40;;;7.70;90.50;;;;;;929908;151;27359;-78
2022/11/28 02:28:54;;;;;;;7.60;6.80;;;7.70;90.50;;;;;;928524;149;27506;-78
2022/11/28 02:31:26;;;;;;;8.13;6.93;;;7.80;90.50;;;;;;933462;151;27298;-80
2022/11/28 02:33:53;;;;;;;8.17;7.40;;;7.80;90.50;;;;;;932048;151;27780;-78
2022/11/28 02:36:22;;;;;;;8.90;8.10;;;7.70;90.50;;;;;;930220;150;27301;-78
2022/11/28 02:39:03;;;;;;;9.10;8.20;;;7.70;90.60;;;;;;917515;153;27435;-79
2022/11/28 02:41:30;;;;;;;9.77;8.77;;;7.70;90.70;;;;;;900306;153;27397;-79
2022/11/28 02:44:02;;;;;;;9.60;8.60;;;7.80;90.70;;;;;;931722;151;27420;-78
2022/11/28 02:46:47;;;;;;;9.57;8.63;;;7.80;90.80;;;;;;930639;150;27396;-78
2022/11/28 02:49:23;;;;;;;11.87;9.07;;;7.80;90.90;;;;;;926011;150;27269;-78
2022/11/28 02:51:50;;;;;;;8.60;7.80;;;7.80;90.90;;;;;;926143;149;27416;-80
2022/11/28 02:54:16;;;;;;;9.87;8.80;;;7.80;90.90;;;;;;930704;152;27774;-80
2022/11/28 02:56:49;;;;;;;9.60;8.60;;;7.90;91.10;;;;;;932649;151;27303;-79
2022/11/28 02:59:37;;;;;;;9.50;8.60;;;7.90;91.10;;;;;;932473;149;27356;-78
2022/11/28 03:02:27;;;;;;;9.70;8.70;;;7.90;91.10;;;;;;917235;153;27476;-78
2022/11/28 03:05:10;;;;;;;10.27;8.73;;;7.90;91.00;;;;;;942593;150;27192;-78
2022/11/28 03:07:51;;;;;;;9.50;8.50;;;7.90;91.00;;;;;;932881;151;27324;-78
2022/11/28 03:10:28;;;;;;;9.87;8.57;;;7.90;90.90;;;;;;933297;152;27757;-78
2022/11/28 03:13:05;;;;;;;8.87;7.97;;;8.00;90.90;;;;;;932742;149;27315;-78
2022/11/28 03:15:32;;;;;;;9.97;8.97;;;8.00;91.00;;;;;;930291;151;28043;-78
2022/11/28 03:18:14;;;;;;;9.13;8.17;;;8.00;90.90;;;;;;927827;149;27608;-78
2022/11/28 03:20:49;;;;;;;8.40;7.60;;;8.00;90.90;;;;;;931413;151;27946;-78
2022/11/28 03:23:27;;;;;;;8.47;7.67;;;8.00;90.90;;;;;;931645;150;27380;-79
2022/11/28 03:26:09;;;;;;;9.50;7.80;;;8.00;90.90;;;;;;930583;149;27442;-78
2022/11/28 03:28:44;;;;;;;8.40;7.53;;;8.00;90.90;;;;;;932765;151;27489;-78
2022/11/28 03:31:13;;;;;;;8.37;7.53;;;8.00;90.80;;;;;;917949;152;27348;-78
2022/11/28 03:33:40;;;;;;;9.47;8.10;;;7.90;90.70;;;;;;930805;151;27387;-78
2022/11/28 03:36:06;;;;;;;9.40;7.43;;;7.90;90.70;;;;;;916064;151;27371;-78
2022/11/28 03:38:35;;;;;;;9.33;8.27;;;7.90;90.70;;;;;;933398;151;27382;-78
2022/11/28 03:41:02;;;;;;;8.70;7.83;;;7.90;90.70;;;;;;932667;151;27314;-78
2022/11/28 03:43:29;;;;;;;9.27;8.20;;;7.90;90.70;;;;;;932355;151;27252;-78
2022/11/28 03:45:55;;;;;;;9.73;8.73;;;7.90;90.70;;;;;;931379;152;27310;-79
2022/11/28 03:48:31;;;;;;;9.87;8.87;;;7.90;90.70;;;;;;931755;151;27391;-79
2022/11/28 03:51:16;;;;;;;11.93;9.20;;;7.90;90.80;;;;;;931604;151;27379;-79
2022/11/28 03:54:04;;;;;;;9.90;8.87;;;7.90;90.80;;;;;;931855;152;27252;-78
2022/11/28 03:56:36;;;;;;;12.17;10.83;;;7.90;91.00;;;;;;931841;151;27343;-78
2022/11/28 03:59:23;;;;;;;12.17;9.60;;;7.80;90.90;;;;;;931739;151;27307;-78
2022/11/28 04:01:53;;;;;;;11.87;9.93;;;7.80;90.90;;;;;;931984;151;27380;-78
2022/11/28 04:04:31;;;;;;;12.37;10.60;;;7.80;90.90;;;;;;931012;151;27236;-78
2022/11/28 04:06:58;;;;;;;12.80;10.47;;;7.80;91.00;;;;;;923773;150;27333;-78
2022/11/28 04:09:30;;;;;;;10.53;9.43;;;7.80;91.00;;;;;;911751;151;27343;-78
2022/11/28 04:11:57;;;;;;;11.77;10.27;;;7.80;91.10;;;;;;918141;153;27464;-78
2022/11/28 04:14:23;;;;;;;12.97;10.30;;;7.80;91.10;;;;;;954344;147;28341;-77
2022/11/28 04:17:05;;;;;;;10.77;9.63;;;7.80;91.10;;;;;;953809;146;27369;-77
2022/11/28 04:19:43;;;;;;;11.73;10.53;;;7.80;91.20;;;;;;954582;147;27280;-78
2022/11/28 04:22:13;;;;;;;11.80;10.47;;;7.80;91.20;;;;;;946559;147;27353;-79
2022/11/28 04:24:48;;;;;;;11.20;10.00;;;7.80;91.20;;;;;;922982;152;27511;-78
2022/11/28 04:27:15;;;;;;;11.20;10.00;;;7.80;91.20;;;;;;938897;149;27405;-78
2022/11/28 04:29:44;;;;;;;14.17;11.27;;;7.70;91.20;;;;;;934977;150;27326;-78
2022/11/28 04:32:11;;;;;;;11.87;10.70;;;7.70;91.30;;;;;;934203;151;27341;-78
2022/11/28 04:34:37;;;;;;;12.03;10.07;;;7.70;91.30;;;;;;933778;150;28257;-77
2022/11/28 04:37:04;;;;;;;11.63;10.43;;;7.70;91.30;;;;;;935404;151;27737;-77
2022/11/28 04:39:31;;;;;;;12.07;10.27;;;7.80;91.40;;;;;;935891;151;27422;-78
2022/11/28 04:41:57;;;;;;;12.57;11.07;;;7.80;91.40;;;;;;935442;148;27244;-78
2022/11/28 04:44:32;;;;;;;11.67;10.47;;;7.80;91.50;;;;;;933464;149;27382;-78
2022/11/28 04:46:59;;;;;;;11.13;10.00;;;7.80;91.40;;;;;;935296;148;27295;-78
2022/11/28 04:49:26;;;;;;;11.43;10.20;;;7.80;91.40;;;;;;936005;150;27360;-77
2022/11/28 04:52:01;;;;;;;11.43;10.27;;;7.80;91.40;;;;;;934098;149;27252;-77
2022/11/28 04:54:39;;;;;;;11.63;10.40;;;7.80;91.50;;;;;;935352;150;27263;-78
2022/11/28 04:57:21;;;;;;;12.10;9.60;;;7.80;91.40;;;;;;934852;150;27318;-78
2022/11/28 04:59:48;;;;;;;12.63;10.60;;;7.80;91.40;;;;;;932598;149;27495;-78
2022/11/28 05:02:15;;;;;;;11.73;10.47;;;7.80;91.30;;;;;;936799;150;27450;-77
2022/11/28 05:04:41;;;;;;;12.33;10.47;;;7.80;91.40;;;;;;933999;151;27391;-78
2022/11/28 05:07:08;;;;;;;12.87;10.20;;;7.80;91.40;;;;;;934491;150;27231;-78
2022/11/28 05:09:34;;;;;;;13.00;11.30;;;7.80;91.40;;;;;;935530;151;27291;-78
2022/11/28 05:12:01;;;;;;;11.17;9.57;;;7.80;91.40;;;;;;935532;151;27336;-79
2022/11/28 05:14:27;;;;;;;12.53;10.63;;;7.80;91.40;;;;;;937109;151;27386;-77
2022/11/28 05:16:54;;;;;;;11.83;10.47;;;7.80;91.40;;;;;;935198;151;27426;-77
2022/11/28 05:19:21;;;;;;;11.43;10.23;;;7.80;91.40;;;;;;936226;151;27293;-77
2022/11/28 05:21:47;;;;;;;12.60;10.13;;;7.80;91.50;;;;;;936929;151;27383;-78
2022/11/28 05:24:14;;;;;;;12.80;10.43;;;7.80;91.50;;;;;;936114;150;27863;-78
2022/11/28 05:26:41;;;;;;;11.97;10.67;;;7.80;91.80;;;;;;934601;150;27277;-79
2022/11/28 05:29:07;;;;;;;11.87;10.67;;;7.80;91.50;;;;;;935896;151;27410;-78
2022/11/28 05:31:34;;;;;;;11.53;10.27;;;7.80;91.50;;;;;;935844;150;27371;-78
2022/11/28 05:34:00;;;;;;;12.03;10.73;;;7.80;91.50;;;;;;935530;151;27340;-78
2022/11/28 05:36:27;;;;;;;12.07;10.80;;;7.80;91.60;;;;;;935195;151;27352;-78
2022/11/28 05:38:53;;;;;;;12.03;10.73;;;7.80;91.60;;;;;;935954;151;27382;-78
2022/11/28 05:41:20;;;;;;;12.07;10.53;;;7.80;91.60;;;;;;934678;151;27671;-78
2022/11/28 05:43:47;;;;;;;12.83;10.77;;;7.80;91.60;;;;;;935615;149;27351;-78
2022/11/28 05:46:13;;;;;;;12.93;10.57;;;7.80;91.70;;;;;;934279;151;27978;-78
2022/11/28 05:48:40;;;;;;;12.33;10.73;;;7.80;91.70;;;;;;935507;150;27316;-78
2022/11/28 05:51:06;;;;;;;11.80;10.00;;;7.80;91.70;;;;;;934761;150;27293;-79
2022/11/28 05:53:33;;;;;;;11.50;10.30;;;7.80;91.70;;;;;;936650;151;27305;-78
2022/11/28 05:55:59;;;;;;;12.93;10.37;;;7.80;91.80;;;;;;935278;150;27298;-77
2022/11/28 05:58:26;;;;;;;11.37;9.97;;;7.80;91.80;;;;;;934628;150;27328;-77
2022/11/28 06:00:53;;;;;;;11.63;10.30;;;7.80;91.80;;;;;;933811;148;27449;-78
2022/11/28 06:03:19;;;;;;;11.47;10.00;;;7.80;91.80;;;;;;939146;150;27305;-77
2022/11/28 06:05:47;;;;;;;12.20;10.07;;;7.80;91.70;;;;;;942746;150;27412;-78
2022/11/28 06:08:12;;;;;;;11.43;10.23;;;7.80;91.70;;;;;;930990;150;27333;-77
2022/11/28 06:10:39;;;;;;;11.80;10.53;;;7.80;91.40;;;;;;930822;151;27325;-77
2022/11/28 06:13:06;;;;;;;11.53;9.87;;;7.80;91.70;;;;;;943968;150;27338;-77
2022/11/28 06:15:32;;;;;;;11.00;9.90;;;7.80;91.70;;;;;;921095;153;27416;-78
2022/11/28 06:17:59;;;;;;;11.20;10.00;;;7.80;91.70;;;;;;947197;150;27413;-78
2022/11/28 06:20:25;;;;;;;10.60;9.57;;;7.80;91.80;;;;;;947221;150;27348;-78
2022/11/28 06:22:52;;;;;;;12.77;10.70;;;7.80;91.80;;;;;;931282;150;27364;-77
2022/11/28 06:25:19;;;;;;;12.30;10.57;;;7.80;91.80;;;;;;928003;152;27297;-78
2022/11/28 06:27:45;;;;;;;11.43;9.97;;;7.80;91.80;;;;;;928543;152;27592;-78
2022/11/28 06:30:12;;;;;;;12.53;10.13;;;7.80;91.80;;;;;;929153;151;27722;-78
2022/11/28 06:32:38;;;;;;;10.97;9.77;;;7.80;91.80;;;;;;938042;150;27456;-79
2022/11/28 06:35:05;;;;;;;13.47;10.50;;;7.80;91.80;;;;;;928239;152;27350;-78
2022/11/28 06:37:31;;;;;;;12.40;11.10;;;7.80;91.80;;;;;;916202;154;27438;-77
2022/11/28 06:39:58;;;;;;;11.90;10.40;;;7.80;91.80;;;;;;943984;149;27787;-78
2022/11/28 06:42:25;;;;;;;11.57;10.00;;;7.80;91.70;;;;;;944231;149;27271;-78
2022/11/28 06:44:51;;;;;;;12.43;10.87;;;7.80;91.80;;;;;;937564;150;27359;-79
2022/11/28 06:47:18;;;;;;;11.73;10.53;;;7.80;91.80;;;;;;936213;151;27290;-78
2022/11/28 06:49:44;;;;;;;12.73;10.63;;;7.80;91.80;;;;;;937453;151;27226;-78
2022/11/28 06:52:11;;;;;;;11.20;10.10;;;7.70;91.80;;;;;;937773;151;27313;-77
2022/11/28 06:54:38;;;;;;;12.83;10.70;;;7.80;91.80;;;;;;938123;150;27238;-78
2022/11/28 06:57:04;;;;;;;12.27;10.83;;;7.70;91.90;;;;;;937308;151;27251;-78
2022/11/28 06:59:31;;;;;;;13.37;11.00;;;7.70;91.90;;;;;;939132;150;27286;-78
2022/11/28 07:02:01;;;;;;;12.50;10.33;;;7.80;91.80;;;;;;934662;150;27479;-78
2022/11/28 07:04:24;;;;;;;11.47;9.70;;;7.80;91.80;;;;;;934263;149;27416;-78
2022/11/28 07:06:51;;;;;;;11.33;10.03;;;7.70;91.80;;;;;;933157;151;27259;-77
2022/11/28 07:09:17;;;;;;;10.90;9.83;;;7.70;91.90;;;;;;933277;151;27240;-78
2022/11/28 07:11:44;;;;;;;12.47;11.17;;;7.70;91.90;;;;;;936919;151;27437;-79
2022/11/28 07:14:10;;;;;;;11.40;10.17;;;7.70;91.90;;;;;;930120;149;27350;-78
2022/11/28 07:16:37;;;;;;;11.60;10.33;;;7.70;91.90;;;;;;935297;151;27287;-78
2022/11/28 07:19:03;;;;;;;11.50;9.80;;;7.70;91.90;;;;;;934936;151;27208;-78
2022/11/28 07:21:30;;;;;;;11.43;10.13;;;7.70;91.90;;;;;;935566;151;27336;-78
2022/11/28 07:23:57;;;;;;;13.00;11.23;;;7.70;92.00;;;;;;935271;151;27771;-79
2022/11/28 07:26:23;;;;;;;11.47;10.27;;;7.70;92.00;;;;;;934713;151;27448;-78
2022/11/28 07:28:50;;;;;;;12.00;10.73;;;7.70;92.00;;;;;;932820;151;27255;-77
2022/11/28 07:31:16;;;;;;;12.13;10.87;;;7.70;92.10;;;;;;934865;150;27299;-78
2022/11/28 07:33:43;;;;;;;11.90;10.60;;;7.70;92.20;;;;;;934810;151;27311;-78
2022/11/28 07:36:10;;;;;;;12.40;11.07;;;7.70;92.20;;;;;;934042;151;27240;-79
2022/11/28 07:38:36;;;;;;;12.40;11.10;;;7.70;92.20;;;;;;928573;149;27353;-78
2022/11/28 07:41:06;;;;;;;14.17;10.97;;;7.70;92.30;;;;;;938236;149;27380;-78
2022/11/28 07:43:32;;;;;;;11.50;10.30;;;7.70;92.30;;;;;;938194;149;27316;-78
2022/11/28 07:45:59;;;;;;;14.03;10.70;;;7.80;92.40;;;;;;940267;148;27812;-78
2022/11/28 07:48:25;;;;;;;13.20;11.10;;;7.80;92.40;;;;;;939261;150;27313;-78
2022/11/28 07:50:52;;;;;;;10.63;9.30;;;7.80;92.50;;;;;;939210;148;27367;-78
2022/11/28 07:53:19;;;;;;;11.83;10.60;;;7.80;92.40;;;;;;940042;150;27361;-77
2022/11/28 07:55:45;;;;;;;12.43;10.40;;;7.80;92.20;;;;;;940109;148;27427;-78
2022/11/28 07:58:12;;;;;;;11.53;10.40;;;7.90;92.50;;;;;;941196;150;27338;-79
2022/11/28 08:00:38;;;;;;;13.03;10.40;;;7.90;92.40;;;;;;940764;150;27303;-78
2022/11/28 08:03:05;;;;;;;12.47;10.50;;;7.90;92.40;;;;;;940889;150;27378;-79
2022/11/28 08:05:32;;;;;;;12.47;11.00;;;7.90;92.40;;;;;;939361;149;27748;-78
2022/11/28 08:07:58;;;;;;;13.53;11.77;;;8.00;92.40;;;;;;941339;150;27404;-78
2022/11/28 08:10:25;;;;;;;13.20;11.20;;;8.00;92.30;;;;;;939601;150;27414;-78
2022/11/28 08:12:51;;;;;;;16.50;11.50;;;8.00;92.30;;;;;;941229;149;27319;-79
2022/11/28 08:15:18;;;;;;;14.77;10.67;;;8.00;92.30;;;;;;938666;148;27341;-79
2022/11/28 08:17:45;;;;;;;14.30;10.77;;;8.00;92.30;;;;;;939318;150;27857;-79
2022/11/28 08:20:11;;;;;;;11.53;9.97;;;8.10;92.30;;;;;;939106;149;27311;-79
2022/11/28 08:22:38;;;;;;;14.37;11.20;;;8.10;92.20;;;;;;938878;150;27343;-78
2022/11/28 08:25:04;;;;;;;12.80;11.33;;;8.10;92.20;;;;;;939015;150;27415;-78
2022/11/28 08:27:31;;;;;;;13.03;11.30;;;8.10;92.20;;;;;;939901;148;27293;-79
2022/11/28 08:29:57;;;;;;;11.63;10.43;;;8.20;92.20;;;;;;939103;149;27941;-79
2022/11/28 08:32:24;;;;;;;12.23;10.87;;;8.20;92.20;;;;;;941227;150;27453;-79
2022/11/28 08:34:51;;;;;;;14.70;11.40;;;8.20;92.10;;;;;;941309;150;27355;-79
2022/11/28 08:37:17;;;;;;;14.00;11.10;;;8.20;92.10;;;;;;939067;149;27305;-79
2022/11/28 08:39:44;;;;;;;13.93;12.00;;;8.30;92.10;;;;;;938345;148;27323;-79
2022/11/28 08:42:10;;;;;;;13.07;10.63;;;8.30;92.00;;;;;;934236;149;27332;-79
2022/11/28 08:44:37;;;;;;;16.40;10.70;;;8.30;91.90;;;;;;941262;150;27360;-78
2022/11/28 08:47:04;;;;;;;13.00;11.37;;;8.30;91.90;;;;;;935004;151;28596;-78
2022/11/28 08:49:30;;;;;;;14.23;11.83;;;8.30;91.90;;;;;;933853;151;27338;-79
2022/11/28 08:51:57;;;;;;;14.20;11.70;;;8.30;91.90;;;;;;934062;151;27691;-78
2022/11/28 08:54:23;;;;;;;13.87;10.87;;;8.40;91.90;;;;;;934303;150;27331;-79
2022/11/28 08:56:50;;;;;;;15.70;11.40;;;8.40;91.90;;;;;;935940;151;27480;-79
2022/11/28 08:59:17;;;;;;;13.03;10.17;;;8.40;92.00;;;;;;934205;151;27387;-79
2022/11/28 09:01:43;;;;;;;12.50;10.67;;;8.40;92.00;;;;;;934324;150;27833;-79
2022/11/28 09:04:10;;;;;;;12.03;10.60;;;8.40;92.00;;;;;;922606;152;27330;-78
2022/11/28 09:06:39;;;;;;;16.40;11.27;;;8.50;92.00;;;;;;909858;152;27371;-79
2022/11/28 09:09:06;;;;;;;13.17;11.00;;;8.50;92.00;;;;;;938588;149;27468;-78
2022/11/28 09:11:32;;;;;;;14.73;11.20;;;8.50;91.90;;;;;;939023;148;27302;-77
2022/11/28 09:13:59;;;;;;;14.10;12.60;;;8.50;91.80;;;;;;939721;150;27309;-79
2022/11/28 09:16:25;;;;;;;13.27;11.07;;;8.60;91.80;;;;;;936669;148;27284;-79
2022/11/28 09:18:52;;;;;;;16.07;11.83;;;8.60;91.70;;;;;;938441;150;27261;-79
2022/11/28 09:21:19;;;;;;;12.00;10.70;;;8.60;91.70;;;;;;938377;150;27391;-79
2022/11/28 09:23:45;;;;;;;12.80;11.47;;;8.60;91.70;;;;;;940534;150;27353;-78
2022/11/28 09:26:12;;;;;;;13.73;11.17;;;8.60;91.60;;;;;;938596;150;27262;-78
2022/11/28 09:28:38;;;;;;;12.93;11.57;;;8.70;91.70;;;;;;937869;148;28066;-78
2022/11/28 09:31:05;;;;;;;12.10;10.80;;;8.70;91.70;;;;;;940661;150;27747;-79
2022/11/28 09:33:32;;;;;;;12.67;10.93;;;8.70;91.60;;;;;;938038;149;27348;-79
2022/11/28 09:35:58;;;;;;;13.67;11.37;;;8.80;91.60;;;;;;938130;150;27371;-78
2022/11/28 09:38:25;;;;;;;13.40;10.70;;;8.80;91.70;;;;;;937503;150;27324;-79
2022/11/28 09:40:51;;;;;;;12.03;10.77;;;8.80;91.70;;;;;;938027;150;27247;-79
2022/11/28 09:43:36;;;;;;;12.83;10.50;;;8.80;91.80;;;;;;939735;150;27309;-79
2022/11/28 09:46:06;;;;;;;14.67;11.27;;;8.90;91.70;;;;;;936770;150;27345;-79
2022/11/28 09:48:33;;;;;;;12.70;10.73;;;9.00;91.60;;;;;;939487;150;27327;-79
2022/11/28 09:51:05;;;;;;;13.40;11.20;;;9.00;91.50;;;;;;938709;150;27294;-78
2022/11/28 09:53:37;;;;;;;12.80;10.93;;;9.00;91.50;;;;;;938716;149;27331;-78
2022/11/28 09:56:03;;;;;;;14.33;11.07;;;9.10;91.80;;;;;;937537;150;27312;-78
2022/11/28 09:58:33;;;;;;;13.83;11.37;;;9.10;91.40;;;;;;928313;150;27282;-79
2022/11/28 10:01:05;;;;;;;14.10;11.33;;;9.10;91.40;;;;;;937895;149;27351;-78
2022/11/28 10:03:35;;;;;;;11.83;10.13;;;9.20;91.40;;;;;;935717;149;27255;-78
2022/11/28 10:06:16;;;;;;;13.70;11.10;;;9.20;91.40;;;;;;936249;149;27359;-78
2022/11/28 10:08:49;;;;;;;11.27;10.07;;;9.20;91.40;;;;;;939539;149;27417;-78
2022/11/28 10:11:33;;;;;;;11.70;10.50;;;9.30;91.40;;;;;;939217;150;28088;-78
2022/11/28 10:14:27;;;;;;;14.40;11.13;;;9.40;91.40;;;;;;904643;156;28423;-78
2022/11/28 10:17:24;;;;;;;12.43;10.47;;;9.40;91.30;;;;;;931045;150;27327;-78
2022/11/28 10:19:56;;;;;;;11.53;10.33;;;9.50;91.30;;;;;;937323;150;27258;-78
2022/11/28 10:22:29;;;;;;;11.97;10.40;;;9.60;91.30;;;;;;937949;150;27815;-78
2022/11/28 10:24:55;;;;;;;11.53;9.90;;;9.60;91.20;;;;;;937093;150;27343;-79
2022/11/28 10:27:22;;;;;;;12.33;10.43;;;9.70;91.20;;;;;;938074;150;27305;-78
2022/11/28 10:29:51;;;;;;;22.23;11.57;;;9.70;91.10;;;;;;939821;150;27261;-79
2022/11/28 10:32:18;;;;;;;11.27;9.10;;;9.80;91.00;;;;;;938740;149;27349;-78
2022/11/28 10:34:50;;;;;;;11.77;10.57;;;9.90;90.90;;;;;;937268;150;27308;-78
2022/11/28 10:37:30;;;;;;;11.63;10.20;;;9.90;90.90;;;;;;938298;149;27351;-78
2022/11/28 10:39:56;;;;;;;12.90;10.43;;;10.00;90.80;;;;;;938798;150;27293;-79
2022/11/28 10:42:31;;;;;;;10.73;9.20;;;10.10;90.80;;;;;;939743;149;27273;-78
2022/11/28 10:45:16;;;;;;;10.97;9.87;;;10.10;90.80;;;;;;937593;150;27299;-79
2022/11/28 10:47:51;;;;;;;12.93;10.27;;;10.20;90.50;;;;;;941464;148;27415;-78
2022/11/28 10:50:33;;;;;;;10.03;9.03;;;10.30;90.70;;;;;;950590;148;27484;-78
2022/11/28 10:53:14;;;;;;;10.80;9.70;;;10.40;90.30;;;;;;916064;152;27464;-79
2022/11/28 10:55:43;;;;;;;11.60;9.57;;;10.40;90.10;;;;;;945694;148;27359;-79
2022/11/28 10:58:28;;;;;;;12.17;10.07;;;10.50;90.10;;;;;;925870;152;27449;-79
2022/11/28 11:00:55;;;;;;;11.13;9.63;;;10.50;90.00;;;;;;939937;148;27382;-78
2022/11/28 11:03:21;;;;;;;16.27;9.63;;;10.60;89.80;;;;;;943244;148;27331;-78
2022/11/28 11:05:48;;;;;;;11.23;10.03;;;10.60;89.60;;;;;;950016;148;27374;-78
2022/11/28 11:08:23;;;;;;;10.87;9.50;;;10.60;89.30;;;;;;948602;148;27377;-78
2022/11/28 11:10:56;;;;;;;11.37;9.77;;;10.70;88.90;;;;;;946333;148;27319;-79
2022/11/28 11:13:22;;;;;;;12.20;9.17;;;10.70;88.60;;;;;;938887;150;27390;-78
2022/11/28 11:15:54;;;;;;;13.50;9.97;;;10.80;88.60;;;;;;935606;151;27792;-78
2022/11/28 11:18:23;;;;;;;12.23;9.17;;;10.80;88.50;;;;;;943557;148;27214;-78
2022/11/28 11:20:50;;;;;;;11.23;9.80;;;10.90;88.40;;;;;;951852;148;27328;-79
2022/11/28 11:23:19;;;;;;;11.60;9.77;;;10.90;88.10;;;;;;951940;147;27370;-78
2022/11/28 11:25:52;;;;;;;10.57;9.40;;;10.90;87.80;;;;;;948380;148;27270;-78
2022/11/28 11:28:30;;;;;;;16.57;9.67;;;11.00;87.60;;;;;;947866;148;27252;-78
2022/11/28 11:30:57;;;;;;;11.97;9.97;;;11.00;87.30;;;;;;948507;149;27239;-78
2022/11/28 11:33:24;;;;;;;11.53;10.07;;;11.00;86.90;;;;;;944630;148;27238;-81
2022/11/28 11:35:50;;;;;;;12.87;10.47;;;11.10;86.60;;;;;;947518;148;27287;-80
2022/11/28 11:38:19;;;;;;;11.90;9.67;;;11.10;86.40;;;;;;948519;148;27407;-80
2022/11/28 11:40:49;;;;;;;10.63;9.53;;;11.10;86.30;;;;;;948881;148;27215;-77
2022/11/28 11:43:25;;;;;;;10.10;8.77;;;11.10;86.20;;;;;;942391;148;27362;-80
2022/11/28 11:46:06;;;;;;;9.70;8.70;;;11.10;86.00;;;;;;949406;149;27387;-77
2022/11/28 11:48:38;;;;;;;9.37;8.37;;;11.10;86.00;;;;;;949643;149;27379;-78
2022/11/28 11:51:05;;;;;;;10.57;8.33;;;11.10;86.00;;;;;;944359;150;27317;-79
2022/11/28 11:53:31;;;;;;;9.97;8.90;;;11.10;86.10;;;;;;960395;147;27864;-79
2022/11/28 11:55:58;;;;;;;8.97;7.47;;;11.10;86.00;;;;;;959101;147;27322;-78
2022/11/28 11:58:33;;;;;;;10.13;8.73;;;11.20;86.00;;;;;;949414;149;27305;-78
2022/11/28 12:01:00;;;;;;;9.67;8.67;;;11.20;85.80;;;;;;928601;151;27342;-79
2022/11/28 12:03:39;;;;;;;9.97;8.83;;;11.20;85.50;;;;;;961935;146;27399;-79
2022/11/28 12:06:14;;;;;;;10.60;8.30;;;11.20;85.30;;;;;;962093;146;27326;-79
2022/11/28 12:09:08;;;;;;;9.30;8.30;;;11.30;85.30;;;;;;935100;151;27402;-79
2022/11/28 12:11:37;;;;;;;9.73;7.83;;;11.30;85.20;;;;;;936004;151;27345;-79
2022/11/28 12:14:19;;;;;;;7.97;7.23;;;11.30;85.30;;;;;;942554;150;27324;-79
2022/11/28 12:16:45;;;;;;;10.10;8.20;;;11.30;85.30;;;;;;955969;147;27461;-79
2022/11/28 12:19:21;;;;;;;9.20;8.03;;;11.30;85.20;;;;;;950355;149;27313;-79
2022/11/28 12:22:02;;;;;;;11.07;8.93;;;11.30;85.30;;;;;;951551;148;28184;-78
2022/11/28 12:24:41;;;;;;;10.93;7.73;;;11.40;85.40;;;;;;951818;149;28084;-78
2022/11/28 12:27:16;;;;;;;9.90;8.03;;;11.40;85.40;;;;;;951485;149;27294;-79
2022/11/28 12:29:45;;;;;;;8.17;7.37;;;11.40;85.10;;;;;;919668;150;27443;-78
2022/11/28 12:32:21;;;;;;;9.17;7.53;;;11.50;85.00;;;;;;941186;150;27455;-78
2022/11/28 12:34:53;;;;;;;8.50;7.70;;;11.50;85.00;;;;;;953491;147;27286;-79
2022/11/28 12:37:40;;;;;;;7.80;7.00;;;11.50;84.90;;;;;;938818;150;27352;-79
2022/11/28 12:40:31;;;;;;;8.60;7.67;;;11.50;84.90;;;;;;951141;149;27278;-78
2022/11/28 12:43:24;;;;;;;9.70;7.80;;;11.50;84.90;;;;;;923508;150;27383;-78
2022/11/28 12:46:09;;;;;;;8.53;7.17;;;11.50;84.80;;;;;;963540;146;27363;-79
2022/11/28 12:48:38;;;;;;;9.77;8.00;;;11.50;84.80;;;;;;963889;146;27322;-78
2022/11/28 12:51:05;;;;;;;8.27;7.47;;;11.50;85.10;;;;;;963062;146;27459;-79
2022/11/28 12:53:53;;;;;;;8.97;7.50;;;11.50;85.50;;;;;;962755;146;27395;-78
2022/11/28 12:56:28;;;;;;;9.67;8.27;;;11.50;85.70;;;;;;960922;146;27319;-78
2022/11/28 12:58:57;;;;;;;8.87;7.60;;;11.50;85.80;;;;;;962689;146;27357;-79